Time;durP1;ratioP1;P1;durP2;ratioP2;P2;SDS_P1;SDS_P2;PMS_P1;PMS_P2;Temp;Humidity;BMP_temperature;BMP_pressure;BME280_temperature;BME280_humidity;BME280_pressure;Samples;Min_cycle;Max_cycle;Signal;HPM_P1;HPM_P2
2019/04/27 00:01:03;;;;;;;1.8;1.6;;;;;;;7.22;74.27832;95292.07;;;;
2019/04/27 00:02:16;;;;;;;1.8;1.6;;;;;;;7.22;74.27832;95292.07;;;;
2019/04/27 00:03:22;;;;;;;1.8;1.6;;;;;;;7.22;74.27832;95292.07;;;;
2019/04/27 00:05:05;;;;;;;1.8;1.6;;;;;;;7.22;74.27832;95292.07;;;;
2019/04/27 00:06:09;;;;;;;1.8;1.6;;;;;;;7.22;74.27832;95292.07;;;;
2019/04/27 00:07:19;;;;;;;1.8;1.6;;;;;;;7.22;74.27832;95292.07;;;;
2019/04/27 00:08:26;;;;;;;1.8;1.6;;;;;;;7.22;74.27832;95292.07;;;;
2019/04/27 00:09:38;;;;;;;1.8;1.6;;;;;;;7.22;74.27832;95292.07;;;;
2019/04/27 00:10:47;;;;;;;1.9;1.7;;;;;;;7.26;74.34863;95279.86;;;;
2019/04/27 00:11:55;;;;;;;1.9;1.7;;;;;;;7.26;74.34863;95279.86;;;;
2019/04/27 00:12:56;;;;;;;1.9;1.7;;;;;;;7.26;74.34863;95279.86;;;;
2019/04/27 00:13:57;;;;;;;1.9;1.7;;;;;;;7.26;74.34863;95279.86;;;;
2019/04/27 00:14:58;;;;;;;1.9;1.7;;;;;;;7.26;74.34863;95279.86;;;;
2019/04/27 00:17:14;;;;;;;1.9;1.7;;;;;;;7.26;74.34863;95279.86;;;;
2019/04/27 00:18:42;;;;;;;1.9;1.7;;;;;;;7.26;74.34863;95279.86;;;;
2019/04/27 00:20:53;;;;;;;1.9;1.7;;;;;;;7.26;74.34863;95279.86;;;;
2019/04/27 00:22:05;;;;;;;1.85;1.7;;;;;;;7.21;74.25488;95277.42;;;;
2019/04/27 00:23:09;;;;;;;1.85;1.7;;;;;;;7.21;74.25488;95277.42;;;;
2019/04/27 00:24:10;;;;;;;1.85;1.7;;;;;;;7.21;74.25488;95277.42;;;;
2019/04/27 00:25:11;;;;;;;1.85;1.7;;;;;;;7.21;74.25488;95277.42;;;;
2019/04/27 00:26:12;;;;;;;1.85;1.7;;;;;;;7.21;74.25488;95277.42;;;;
2019/04/27 00:27:13;;;;;;;1.85;1.7;;;;;;;7.21;74.25488;95277.42;;;;
2019/04/27 00:28:14;;;;;;;1.85;1.7;;;;;;;7.21;74.25488;95277.42;;;;
2019/04/27 00:29:15;;;;;;;1.85;1.7;;;;;;;7.21;74.25488;95277.42;;;;
2019/04/27 00:30:16;;;;;;;1.85;1.7;;;;;;;7.21;74.25488;95277.42;;;;
2019/04/27 00:31:18;;;;;;;1.8;1.5;;;;;;;7.22;74.34375;95280.81;;;;
2019/04/27 00:32:19;;;;;;;1.8;1.5;;;;;;;7.22;74.34375;95280.81;;;;
2019/04/27 00:33:20;;;;;;;1.8;1.5;;;;;;;7.22;74.34375;95280.81;;;;
2019/04/27 00:34:21;;;;;;;1.8;1.5;;;;;;;7.22;74.34375;95280.81;;;;
2019/04/27 00:35:30;;;;;;;1.8;1.5;;;;;;;7.22;74.34375;95280.81;;;;
2019/04/27 00:36:40;;;;;;;1.8;1.5;;;;;;;7.22;74.34375;95280.81;;;;
2019/04/27 00:37:55;;;;;;;1.8;1.5;;;;;;;7.22;74.34375;95280.81;;;;
2019/04/27 00:39:02;;;;;;;1.8;1.5;;;;;;;7.22;74.34375;95280.81;;;;
2019/04/27 00:40:09;;;;;;;1.8;1.5;;;;;;;7.22;74.34375;95280.81;;;;
2019/04/27 00:41:12;;;;;;;1.8;1.5;;;;;;;7.22;74.34375;95280.81;;;;
2019/04/27 00:42:13;;;;;;;2;1.6;;;;;;;7.18;74.31445;95270.32;;;;
2019/04/27 00:43:14;;;;;;;2;1.6;;;;;;;7.18;74.31445;95270.32;;;;
2019/04/27 00:44:15;;;;;;;2;1.6;;;;;;;7.18;74.31445;95270.32;;;;
2019/04/27 00:45:16;;;;;;;2;1.6;;;;;;;7.18;74.31445;95270.32;;;;
2019/04/27 00:46:17;;;;;;;2;1.6;;;;;;;7.18;74.31445;95270.32;;;;
2019/04/27 00:47:18;;;;;;;2;1.6;;;;;;;7.18;74.31445;95270.32;;;;
2019/04/27 00:48:19;;;;;;;2;1.6;;;;;;;7.18;74.31445;95270.32;;;;
2019/04/27 00:49:20;;;;;;;2;1.6;;;;;;;7.18;74.31445;95270.32;;;;
2019/04/27 00:50:21;;;;;;;2;1.6;;;;;;;7.18;74.31445;95270.32;;;;
2019/04/27 00:51:22;;;;;;;2;1.6;;;;;;;7.18;74.31445;95270.32;;;;
2019/04/27 00:52:23;;;;;;;2;1.6;;;;;;;7.18;74.31445;95270.32;;;;
2019/04/27 00:53:25;;;;;;;2;1.6;;;;;;;7.18;74.31445;95270.32;;;;
2019/04/27 00:54:26;;;;;;;2;1.6;;;;;;;7.18;74.31445;95270.32;;;;
2019/04/27 00:55:27;;;;;;;2;1.6;;;;;;;7.18;74.31445;95270.32;;;;
2019/04/27 00:56:42;;;;;;;2;1.6;;;;;;;7.18;74.31445;95270.32;;;;
2019/04/27 00:58:03;;;;;;;2;1.6;;;;;;;7.18;74.31445;95270.32;;;;
2019/04/27 00:59:20;;;;;;;2;1.6;;;;;;;7.18;74.31445;95270.32;;;;
2019/04/27 01:05:30;;;;;;;1.9;1.7;;;;;;;7.15;74.22461;95272.49;;;;
2019/04/27 01:06:31;;;;;;;1.9;1.7;;;;;;;7.15;74.22461;95272.49;;;;
2019/04/27 01:07:33;;;;;;;1.9;1.7;;;;;;;7.15;74.22461;95272.49;;;;
2019/04/27 01:08:34;;;;;;;1.9;1.7;;;;;;;7.15;74.22461;95272.49;;;;
2019/04/27 01:09:35;;;;;;;1.9;1.7;;;;;;;7.15;74.22461;95272.49;;;;
2019/04/27 01:10:37;;;;;;;1.9;1.7;;;;;;;7.15;74.22461;95272.49;;;;
2019/04/27 01:11:38;;;;;;;1.9;1.7;;;;;;;7.15;74.22461;95272.49;;;;
2019/04/27 01:12:39;;;;;;;1.9;1.7;;;;;;;7.15;74.22461;95272.49;;;;
2019/04/27 01:13:40;;;;;;;2.2;2;;;;;;;7.22;74.30078;95265.63;;;;
2019/04/27 01:14:41;;;;;;;2.2;2;;;;;;;7.22;74.30078;95265.63;;;;
2019/04/27 01:15:42;;;;;;;2.2;2;;;;;;;7.22;74.30078;95265.63;;;;
2019/04/27 01:16:43;;;;;;;2.2;2;;;;;;;7.22;74.30078;95265.63;;;;
2019/04/27 01:17:44;;;;;;;2.2;2;;;;;;;7.22;74.30078;95265.63;;;;
2019/04/27 01:18:45;;;;;;;2.2;2;;;;;;;7.22;74.30078;95265.63;;;;
2019/04/27 01:19:47;;;;;;;2.2;2;;;;;;;7.22;74.30078;95265.63;;;;
2019/04/27 01:20:48;;;;;;;2.2;2;;;;;;;7.22;74.30078;95265.63;;;;
2019/04/27 01:21:49;;;;;;;2.2;2;;;;;;;7.22;74.30078;95265.63;;;;
2019/04/27 01:22:50;;;;;;;2.2;2;;;;;;;7.22;74.30078;95265.63;;;;
2019/04/27 01:23:51;;;;;;;1.9;1.7;;;;;;;7.18;74.18848;95252.74;;;;
2019/04/27 01:24:52;;;;;;;1.9;1.7;;;;;;;7.18;74.18848;95252.74;;;;
2019/04/27 01:31:09;;;;;;;1.9;1.7;;;;;;;7.18;74.18848;95252.74;;;;
2019/04/27 01:32:12;;;;;;;1.9;1.7;;;;;;;7.18;74.18848;95252.74;;;;
2019/04/27 01:33:13;;;;;;;1.9;1.7;;;;;;;7.18;74.18848;95252.74;;;;
2019/04/27 01:34:14;;;;;;;2.1;1.85;;;;;;;7.19;74.36914;95272.38;;;;
2019/04/27 01:35:15;;;;;;;2.1;1.85;;;;;;;7.19;74.36914;95272.38;;;;
2019/04/27 01:36:17;;;;;;;2.1;1.85;;;;;;;7.19;74.36914;95272.38;;;;
2019/04/27 01:37:18;;;;;;;2.1;1.85;;;;;;;7.19;74.36914;95272.38;;;;
2019/04/27 01:38:19;;;;;;;2.1;1.85;;;;;;;7.19;74.36914;95272.38;;;;
2019/04/27 01:39:20;;;;;;;2.1;1.85;;;;;;;7.19;74.36914;95272.38;;;;
2019/04/27 01:40:22;;;;;;;2.1;1.85;;;;;;;7.19;74.36914;95272.38;;;;
2019/04/27 01:41:23;;;;;;;2.1;1.85;;;;;;;7.19;74.36914;95272.38;;;;
2019/04/27 01:42:25;;;;;;;2.1;1.85;;;;;;;7.19;74.36914;95272.38;;;;
2019/04/27 01:43:26;;;;;;;2.1;1.85;;;;;;;7.19;74.36914;95272.38;;;;
2019/04/27 01:44:27;;;;;;;2.1;1.85;;;;;;;7.19;74.36914;95272.38;;;;
2019/04/27 01:45:28;;;;;;;2.5;2.15;;;;;;;7.11;74.61035;95274.36;;;;
2019/04/27 01:46:29;;;;;;;2.5;2.15;;;;;;;7.11;74.61035;95274.36;;;;
2019/04/27 01:47:30;;;;;;;2.5;2.15;;;;;;;7.11;74.61035;95274.36;;;;
2019/04/27 01:48:31;;;;;;;2.5;2.15;;;;;;;7.11;74.61035;95274.36;;;;
2019/04/27 01:49:32;;;;;;;2.5;2.15;;;;;;;7.11;74.61035;95274.36;;;;
2019/04/27 01:50:33;;;;;;;2.5;2.15;;;;;;;7.11;74.61035;95274.36;;;;
2019/04/27 01:51:35;;;;;;;2.5;2.15;;;;;;;7.11;74.61035;95274.36;;;;
2019/04/27 01:52:36;;;;;;;2.5;2.15;;;;;;;7.11;74.61035;95274.36;;;;
2019/04/27 01:53:37;;;;;;;2.5;2.15;;;;;;;7.11;74.61035;95274.36;;;;
2019/04/27 01:54:38;;;;;;;2.5;2.15;;;;;;;7.11;74.61035;95274.36;;;;
2019/04/27 01:55:39;;;;;;;2.45;2.2;;;;;;;7.08;74.93262;95279.35;;;;
2019/04/27 01:56:41;;;;;;;2.45;2.2;;;;;;;7.08;74.93262;95279.35;;;;
2019/04/27 01:57:42;;;;;;;2.45;2.2;;;;;;;7.08;74.93262;95279.35;;;;
2019/04/27 01:58:43;;;;;;;2.45;2.2;;;;;;;7.08;74.93262;95279.35;;;;
2019/04/27 01:59:45;;;;;;;2.45;2.2;;;;;;;7.08;74.93262;95279.35;;;;
2019/04/27 02:05:55;;;;;;;2.45;2.2;;;;;;;7.08;74.93262;95279.35;;;;
2019/04/27 02:06:57;;;;;;;2.7;2.45;;;;;;;6.95;74.89063;95273.94;;;;
2019/04/27 02:07:58;;;;;;;2.7;2.45;;;;;;;6.95;74.89063;95273.94;;;;
2019/04/27 02:09:00;;;;;;;2.7;2.45;;;;;;;6.95;74.89063;95273.94;;;;
2019/04/27 02:10:01;;;;;;;2.7;2.45;;;;;;;6.95;74.89063;95273.94;;;;
2019/04/27 02:11:03;;;;;;;2.7;2.45;;;;;;;6.95;74.89063;95273.94;;;;
2019/04/27 02:12:04;;;;;;;2.7;2.45;;;;;;;6.95;74.89063;95273.94;;;;
2019/04/27 02:13:05;;;;;;;2.7;2.45;;;;;;;6.95;74.89063;95273.94;;;;
2019/04/27 02:14:06;;;;;;;2.7;2.45;;;;;;;6.95;74.89063;95273.94;;;;
2019/04/27 02:15:07;;;;;;;2.7;2.45;;;;;;;6.95;74.89063;95273.94;;;;
2019/04/27 02:16:09;;;;;;;2.7;2.45;;;;;;;6.95;74.89063;95273.94;;;;
2019/04/27 02:17:10;;;;;;;4.3;2.5;;;;;;;6.91;75.1582;95274.17;;;;
2019/04/27 02:18:11;;;;;;;4.3;2.5;;;;;;;6.91;75.1582;95274.17;;;;
2019/04/27 02:19:12;;;;;;;4.3;2.5;;;;;;;6.91;75.1582;95274.17;;;;
2019/04/27 02:20:14;;;;;;;4.3;2.5;;;;;;;6.91;75.1582;95274.17;;;;
2019/04/27 02:21:15;;;;;;;4.3;2.5;;;;;;;6.91;75.1582;95274.17;;;;
2019/04/27 02:22:16;;;;;;;4.3;2.5;;;;;;;6.91;75.1582;95274.17;;;;
2019/04/27 02:23:17;;;;;;;4.3;2.5;;;;;;;6.91;75.1582;95274.17;;;;
2019/04/27 02:24:18;;;;;;;4.3;2.5;;;;;;;6.91;75.1582;95274.17;;;;
2019/04/27 02:25:19;;;;;;;4.3;2.5;;;;;;;6.91;75.1582;95274.17;;;;
2019/04/27 02:26:20;;;;;;;4.3;2.5;;;;;;;6.91;75.1582;95274.17;;;;
2019/04/27 02:27:22;;;;;;;3.65;2.6;;;;;;;6.83;75.44238;95259.55;;;;
2019/04/27 02:28:33;;;;;;;3.65;2.6;;;;;;;6.83;75.44238;95259.55;;;;
2019/04/27 02:29:46;;;;;;;3.65;2.6;;;;;;;6.83;75.44238;95259.55;;;;
2019/04/27 02:31:30;;;;;;;3.65;2.6;;;;;;;6.83;75.44238;95259.55;;;;
2019/04/27 02:33:11;;;;;;;3.65;2.6;;;;;;;6.83;75.44238;95259.55;;;;
2019/04/27 02:34:16;;;;;;;3.65;2.6;;;;;;;6.83;75.44238;95259.55;;;;
2019/04/27 02:35:18;;;;;;;3.65;2.6;;;;;;;6.83;75.44238;95259.55;;;;
2019/04/27 02:36:19;;;;;;;3.65;2.6;;;;;;;6.83;75.44238;95259.55;;;;
2019/04/27 02:37:20;;;;;;;3.65;2.6;;;;;;;6.83;75.44238;95259.55;;;;
2019/04/27 02:38:21;;;;;;;2.65;2.45;;;;;;;6.8;75.74512;95244.4;;;;
2019/04/27 02:39:22;;;;;;;2.65;2.45;;;;;;;6.8;75.74512;95244.4;;;;
2019/04/27 02:40:23;;;;;;;2.65;2.45;;;;;;;6.8;75.74512;95244.4;;;;
2019/04/27 02:41:59;;;;;;;2.65;2.45;;;;;;;6.8;75.74512;95244.4;;;;
2019/04/27 02:43:00;;;;;;;2.65;2.45;;;;;;;6.8;75.74512;95244.4;;;;
2019/04/27 02:44:07;;;;;;;2.65;2.45;;;;;;;6.8;75.74512;95244.4;;;;
2019/04/27 02:45:09;;;;;;;2.65;2.45;;;;;;;6.8;75.74512;95244.4;;;;
2019/04/27 02:46:10;;;;;;;2.65;2.45;;;;;;;6.8;75.74512;95244.4;;;;
2019/04/27 02:47:11;;;;;;;2.65;2.45;;;;;;;6.8;75.74512;95244.4;;;;
2019/04/27 02:48:13;;;;;;;2.65;2.45;;;;;;;6.8;75.74512;95244.4;;;;
2019/04/27 02:49:14;;;;;;;3.1;2.5;;;;;;;6.71;75.99316;95243.38;;;;
2019/04/27 02:50:15;;;;;;;3.1;2.5;;;;;;;6.71;75.99316;95243.38;;;;
2019/04/27 02:56:24;;;;;;;3.1;2.5;;;;;;;6.71;75.99316;95243.38;;;;
2019/04/27 02:57:25;;;;;;;3.1;2.5;;;;;;;6.71;75.99316;95243.38;;;;
2019/04/27 02:58:26;;;;;;;3.1;2.5;;;;;;;6.71;75.99316;95243.38;;;;
2019/04/27 02:59:27;;;;;;;3.3;2.45;;;;;;;6.69;76.25488;95237.42;;;;
2019/04/27 03:00:28;;;;;;;3.3;2.45;;;;;;;6.69;76.25488;95237.42;;;;
2019/04/27 03:01:34;;;;;;;3.3;2.45;;;;;;;6.69;76.25488;95237.42;;;;
2019/04/27 03:02:40;;;;;;;3.3;2.45;;;;;;;6.69;76.25488;95237.42;;;;
2019/04/27 03:03:42;;;;;;;3.3;2.45;;;;;;;6.69;76.25488;95237.42;;;;
2019/04/27 03:04:43;;;;;;;3.3;2.45;;;;;;;6.69;76.25488;95237.42;;;;
2019/04/27 03:05:44;;;;;;;3.3;2.45;;;;;;;6.69;76.25488;95237.42;;;;
2019/04/27 03:06:45;;;;;;;3.3;2.45;;;;;;;6.69;76.25488;95237.42;;;;
2019/04/27 03:07:46;;;;;;;3.3;2.45;;;;;;;6.69;76.25488;95237.42;;;;
2019/04/27 03:08:47;;;;;;;3.3;2.45;;;;;;;6.69;76.25488;95237.42;;;;
2019/04/27 03:09:48;;;;;;;2.35;2.1;;;;;;;6.63;76.41309;95241.88;;;;
2019/04/27 03:10:49;;;;;;;2.35;2.1;;;;;;;6.63;76.41309;95241.88;;;;
2019/04/27 03:11:50;;;;;;;2.35;2.1;;;;;;;6.63;76.41309;95241.88;;;;
2019/04/27 03:13:00;;;;;;;2.35;2.1;;;;;;;6.63;76.41309;95241.88;;;;
2019/04/27 03:18:13;;;;;;;2.35;2.1;;;;;;;6.63;76.41309;95241.88;;;;
2019/04/27 03:19:27;;;;;;;2.35;2.1;;;;;;;6.63;76.41309;95241.88;;;;
2019/04/27 03:20:36;;;;;;;3.1;2.45;;;;;;;6.68;76.61523;95241.55;;;;
2019/04/27 03:21:57;;;;;;;3.1;2.45;;;;;;;6.68;76.61523;95241.55;;;;
2019/04/27 03:23:00;;;;;;;3.1;2.45;;;;;;;6.68;76.61523;95241.55;;;;
2019/04/27 03:24:01;;;;;;;3.1;2.45;;;;;;;6.68;76.61523;95241.55;;;;
2019/04/27 03:25:19;;;;;;;3.1;2.45;;;;;;;6.68;76.61523;95241.55;;;;
2019/04/27 03:29:29;;;;;;;3.1;2.45;;;;;;;6.68;76.61523;95241.55;;;;
2019/04/27 03:30:30;;;;;;;3.1;2.45;;;;;;;6.68;76.61523;95241.55;;;;
2019/04/27 03:31:31;;;;;;;2.9;2.7;;;;;;;6.73;77.11133;95246.67;;;;
2019/04/27 03:32:33;;;;;;;2.9;2.7;;;;;;;6.73;77.11133;95246.67;;;;
2019/04/27 03:33:34;;;;;;;2.9;2.7;;;;;;;6.73;77.11133;95246.67;;;;
2019/04/27 03:34:35;;;;;;;2.9;2.7;;;;;;;6.73;77.11133;95246.67;;;;
2019/04/27 03:35:36;;;;;;;2.9;2.7;;;;;;;6.73;77.11133;95246.67;;;;
2019/04/27 03:36:37;;;;;;;2.9;2.7;;;;;;;6.73;77.11133;95246.67;;;;
2019/04/27 03:37:38;;;;;;;2.9;2.7;;;;;;;6.73;77.11133;95246.67;;;;
2019/04/27 03:38:39;;;;;;;2.9;2.7;;;;;;;6.73;77.11133;95246.67;;;;
2019/04/27 03:39:40;;;;;;;2.9;2.7;;;;;;;6.73;77.11133;95246.67;;;;
2019/04/27 03:40:41;;;;;;;2.9;2.7;;;;;;;6.73;77.11133;95246.67;;;;
2019/04/27 03:41:42;;;;;;;4.099999;3.1;;;;;;;6.73;77.18555;95274.33;;;;
2019/04/27 03:42:45;;;;;;;4.099999;3.1;;;;;;;6.73;77.18555;95274.33;;;;
2019/04/27 03:43:47;;;;;;;4.099999;3.1;;;;;;;6.73;77.18555;95274.33;;;;
2019/04/27 03:44:48;;;;;;;4.099999;3.1;;;;;;;6.73;77.18555;95274.33;;;;
2019/04/27 03:45:49;;;;;;;4.099999;3.1;;;;;;;6.73;77.18555;95274.33;;;;
2019/04/27 03:46:50;;;;;;;4.099999;3.1;;;;;;;6.73;77.18555;95274.33;;;;
2019/04/27 03:47:51;;;;;;;4.099999;3.1;;;;;;;6.73;77.18555;95274.33;;;;
2019/04/27 03:48:52;;;;;;;4.099999;3.1;;;;;;;6.73;77.18555;95274.33;;;;
2019/04/27 03:49:53;;;;;;;4.099999;3.1;;;;;;;6.73;77.18555;95274.33;;;;
2019/04/27 03:51:05;;;;;;;4.099999;3.1;;;;;;;6.73;77.18555;95274.33;;;;
2019/04/27 03:52:28;;;;;;;4.099999;3.1;;;;;;;6.73;77.18555;95274.33;;;;
2019/04/27 03:53:34;;;;;;;4.700001;3.5;;;;;;;6.68;77.39941;95258.98;;;;
2019/04/27 03:54:42;;;;;;;4.700001;3.5;;;;;;;6.68;77.39941;95258.98;;;;
2019/04/27 03:55:46;;;;;;;4.700001;3.5;;;;;;;6.68;77.39941;95258.98;;;;
2019/04/27 03:56:51;;;;;;;4.700001;3.5;;;;;;;6.68;77.39941;95258.98;;;;
2019/04/27 03:57:58;;;;;;;4.700001;3.5;;;;;;;6.68;77.39941;95258.98;;;;
2019/04/27 03:59:03;;;;;;;4.700001;3.5;;;;;;;6.68;77.39941;95258.98;;;;
2019/04/27 04:00:09;;;;;;;4.700001;3.5;;;;;;;6.68;77.39941;95258.98;;;;
2019/04/27 04:01:10;;;;;;;4.700001;3.5;;;;;;;6.68;77.39941;95258.98;;;;
2019/04/27 04:02:12;;;;;;;4.700001;3.5;;;;;;;6.68;77.39941;95258.98;;;;
2019/04/27 04:03:13;;;;;;;4.700001;3.5;;;;;;;6.68;77.39941;95258.98;;;;
2019/04/27 04:04:14;;;;;;;4.700001;3.5;;;;;;;6.68;77.39941;95258.98;;;;
2019/04/27 04:05:15;;;;;;;4.700001;3.5;;;;;;;6.68;77.39941;95258.98;;;;
2019/04/27 04:06:16;;;;;;;4.700001;3.5;;;;;;;6.68;77.39941;95258.98;;;;
2019/04/27 04:07:17;;;;;;;4.700001;3.5;;;;;;;6.68;77.39941;95258.98;;;;
2019/04/27 04:08:18;;;;;;;4.700001;3.5;;;;;;;6.68;77.39941;95258.98;;;;
2019/04/27 04:09:36;;;;;;;4.700001;3.5;;;;;;;6.68;77.39941;95258.98;;;;
2019/04/27 04:10:42;;;;;;;4.700001;3.5;;;;;;;6.68;77.39941;95258.98;;;;
2019/04/27 04:11:56;;;;;;;4.700001;3.5;;;;;;;6.68;77.39941;95258.98;;;;
2019/04/27 04:13:05;;;;;;;4.700001;3.5;;;;;;;6.68;77.39941;95258.98;;;;
2019/04/27 04:14:08;;;;;;;4.900001;3.55;;;;;;;6.7;78.29297;95250.2;;;;
2019/04/27 04:15:15;;;;;;;4.900001;3.55;;;;;;;6.7;78.29297;95250.2;;;;
2019/04/27 04:16:23;;;;;;;4.900001;3.55;;;;;;;6.7;78.29297;95250.2;;;;
2019/04/27 04:17:25;;;;;;;4.900001;3.55;;;;;;;6.7;78.29297;95250.2;;;;
2019/04/27 04:18:26;;;;;;;4.900001;3.55;;;;;;;6.7;78.29297;95250.2;;;;
2019/04/27 04:19:27;;;;;;;4.900001;3.55;;;;;;;6.7;78.29297;95250.2;;;;
2019/04/27 04:20:28;;;;;;;4.900001;3.55;;;;;;;6.7;78.29297;95250.2;;;;
2019/04/27 04:21:29;;;;;;;4.900001;3.55;;;;;;;6.7;78.29297;95250.2;;;;
2019/04/27 04:22:30;;;;;;;4.900001;3.55;;;;;;;6.7;78.29297;95250.2;;;;
2019/04/27 04:23:31;;;;;;;4.900001;3.55;;;;;;;6.7;78.29297;95250.2;;;;
2019/04/27 04:24:32;;;;;;;3.9;3.2;;;;;;;6.74;79.27344;95252.78;;;;
2019/04/27 04:25:33;;;;;;;3.9;3.2;;;;;;;6.74;79.27344;95252.78;;;;
2019/04/27 04:26:34;;;;;;;3.9;3.2;;;;;;;6.74;79.27344;95252.78;;;;
2019/04/27 04:27:35;;;;;;;3.9;3.2;;;;;;;6.74;79.27344;95252.78;;;;
2019/04/27 04:28:37;;;;;;;3.9;3.2;;;;;;;6.74;79.27344;95252.78;;;;
2019/04/27 04:29:38;;;;;;;3.9;3.2;;;;;;;6.74;79.27344;95252.78;;;;
2019/04/27 04:30:39;;;;;;;3.9;3.2;;;;;;;6.74;79.27344;95252.78;;;;
2019/04/27 04:31:40;;;;;;;3.9;3.2;;;;;;;6.74;79.27344;95252.78;;;;
2019/04/27 04:32:41;;;;;;;3.9;3.2;;;;;;;6.74;79.27344;95252.78;;;;
2019/04/27 04:33:42;;;;;;;3.9;3.2;;;;;;;6.74;79.27344;95252.78;;;;
2019/04/27 04:34:43;;;;;;;3.55;3.05;;;;;;;6.7;78.95801;95252.47;;;;
2019/04/27 04:35:44;;;;;;;3.55;3.05;;;;;;;6.7;78.95801;95252.47;;;;
2019/04/27 04:36:45;;;;;;;3.55;3.05;;;;;;;6.7;78.95801;95252.47;;;;
2019/04/27 04:37:46;;;;;;;3.55;3.05;;;;;;;6.7;78.95801;95252.47;;;;
2019/04/27 04:38:47;;;;;;;3.55;3.05;;;;;;;6.7;78.95801;95252.47;;;;
2019/04/27 04:39:48;;;;;;;3.55;3.05;;;;;;;6.7;78.95801;95252.47;;;;
2019/04/27 04:40:58;;;;;;;3.55;3.05;;;;;;;6.7;78.95801;95252.47;;;;
2019/04/27 04:42:07;;;;;;;3.55;3.05;;;;;;;6.7;78.95801;95252.47;;;;
2019/04/27 04:43:14;;;;;;;3.55;3.05;;;;;;;6.7;78.95801;95252.47;;;;
2019/04/27 04:44:21;;;;;;;3.55;3.05;;;;;;;6.7;78.95801;95252.47;;;;
2019/04/27 04:50:31;;;;;;;3.7;3.400001;;;;;;;6.8;78.89258;95248.3;;;;
2019/04/27 04:51:32;;;;;;;3.7;3.400001;;;;;;;6.8;78.89258;95248.3;;;;
2019/04/27 04:52:33;;;;;;;3.7;3.400001;;;;;;;6.8;78.89258;95248.3;;;;
2019/04/27 04:53:34;;;;;;;3.7;3.400001;;;;;;;6.8;78.89258;95248.3;;;;
2019/04/27 04:54:35;;;;;;;3.7;3.400001;;;;;;;6.8;78.89258;95248.3;;;;
2019/04/27 04:55:36;;;;;;;3.7;3.400001;;;;;;;6.8;78.89258;95248.3;;;;
2019/04/27 04:56:37;;;;;;;3.6;2.95;;;;;;;6.94;78.91797;95250.83;;;;
2019/04/27 04:57:39;;;;;;;3.6;2.95;;;;;;;6.94;78.91797;95250.83;;;;
2019/04/27 04:58:40;;;;;;;3.6;2.95;;;;;;;6.94;78.91797;95250.83;;;;
2019/04/27 04:59:41;;;;;;;3.6;2.95;;;;;;;6.94;78.91797;95250.83;;;;
2019/04/27 05:00:42;;;;;;;3.6;2.95;;;;;;;6.94;78.91797;95250.83;;;;
2019/04/27 05:01:43;;;;;;;3.6;2.95;;;;;;;6.94;78.91797;95250.83;;;;
2019/04/27 05:02:44;;;;;;;3.6;2.95;;;;;;;6.94;78.91797;95250.83;;;;
2019/04/27 05:03:45;;;;;;;3.6;2.95;;;;;;;6.94;78.91797;95250.83;;;;
2019/04/27 05:04:46;;;;;;;3.6;2.95;;;;;;;6.94;78.91797;95250.83;;;;
2019/04/27 05:05:47;;;;;;;3.6;2.95;;;;;;;6.94;78.91797;95250.83;;;;
2019/04/27 05:06:48;;;;;;;4.4;3.7;;;;;;;7.17;78.74707;95261.02;;;;
2019/04/27 05:07:50;;;;;;;4.4;3.7;;;;;;;7.17;78.74707;95261.02;;;;
2019/04/27 05:08:51;;;;;;;4.4;3.7;;;;;;;7.17;78.74707;95261.02;;;;
2019/04/27 05:09:52;;;;;;;4.4;3.7;;;;;;;7.17;78.74707;95261.02;;;;
2019/04/27 05:10:53;;;;;;;4.4;3.7;;;;;;;7.17;78.74707;95261.02;;;;
2019/04/27 05:11:54;;;;;;;4.4;3.7;;;;;;;7.17;78.74707;95261.02;;;;
2019/04/27 05:12:55;;;;;;;4.4;3.7;;;;;;;7.17;78.74707;95261.02;;;;
2019/04/27 05:13:56;;;;;;;4.4;3.7;;;;;;;7.17;78.74707;95261.02;;;;
2019/04/27 05:14:57;;;;;;;4.4;3.7;;;;;;;7.17;78.74707;95261.02;;;;
2019/04/27 05:15:58;;;;;;;4.4;3.7;;;;;;;7.17;78.74707;95261.02;;;;
2019/04/27 05:16:59;;;;;;;3.8;3.35;;;;;;;7.39;78.68164;95264.61;;;;
2019/04/27 05:18:00;;;;;;;3.8;3.35;;;;;;;7.39;78.68164;95264.61;;;;
2019/04/27 05:19:01;;;;;;;3.8;3.35;;;;;;;7.39;78.68164;95264.61;;;;
2019/04/27 05:20:19;;;;;;;3.8;3.35;;;;;;;7.39;78.68164;95264.61;;;;
2019/04/27 05:21:26;;;;;;;3.8;3.35;;;;;;;7.39;78.68164;95264.61;;;;
2019/04/27 05:22:27;;;;;;;3.8;3.35;;;;;;;7.39;78.68164;95264.61;;;;
2019/04/27 05:23:28;;;;;;;3.8;3.35;;;;;;;7.39;78.68164;95264.61;;;;
2019/04/27 05:24:29;;;;;;;3.8;3.35;;;;;;;7.39;78.68164;95264.61;;;;
2019/04/27 05:25:31;;;;;;;3.8;3.35;;;;;;;7.39;78.68164;95264.61;;;;
2019/04/27 05:26:32;;;;;;;3.8;3.35;;;;;;;7.39;78.68164;95264.61;;;;
2019/04/27 05:27:33;;;;;;;3.8;3.35;;;;;;;7.39;78.68164;95264.61;;;;
2019/04/27 05:28:34;;;;;;;3.8;3.5;;;;;;;7.8;78.55371;95267.1;;;;
2019/04/27 05:29:35;;;;;;;3.8;3.5;;;;;;;7.8;78.55371;95267.1;;;;
2019/04/27 05:30:36;;;;;;;3.8;3.5;;;;;;;7.8;78.55371;95267.1;;;;
2019/04/27 05:31:37;;;;;;;3.8;3.5;;;;;;;7.8;78.55371;95267.1;;;;
2019/04/27 05:32:38;;;;;;;3.8;3.5;;;;;;;7.8;78.55371;95267.1;;;;
2019/04/27 05:33:39;;;;;;;3.8;3.5;;;;;;;7.8;78.55371;95267.1;;;;
2019/04/27 05:34:40;;;;;;;3.8;3.5;;;;;;;7.8;78.55371;95267.1;;;;
2019/04/27 05:35:41;;;;;;;3.8;3.5;;;;;;;7.8;78.55371;95267.1;;;;
2019/04/27 05:36:42;;;;;;;3.8;3.5;;;;;;;7.8;78.55371;95267.1;;;;
2019/04/27 05:37:43;;;;;;;3.8;3.5;;;;;;;7.8;78.55371;95267.1;;;;
2019/04/27 05:38:44;;;;;;;3.9;3.5;;;;;;;8.18;78.26074;95267.89;;;;
2019/04/27 05:39:46;;;;;;;3.9;3.5;;;;;;;8.18;78.26074;95267.89;;;;
2019/04/27 05:40:47;;;;;;;3.9;3.5;;;;;;;8.18;78.26074;95267.89;;;;
2019/04/27 05:41:48;;;;;;;3.9;3.5;;;;;;;8.18;78.26074;95267.89;;;;
2019/04/27 05:42:49;;;;;;;3.9;3.5;;;;;;;8.18;78.26074;95267.89;;;;
2019/04/27 05:44:30;;;;;;;3.9;3.5;;;;;;;8.18;78.26074;95267.89;;;;
2019/04/27 05:45:55;;;;;;;3.9;3.5;;;;;;;8.18;78.26074;95267.89;;;;
2019/04/27 05:47:26;;;;;;;3.9;3.5;;;;;;;8.18;78.26074;95267.89;;;;
2019/04/27 05:48:28;;;;;;;3.9;3.5;;;;;;;8.18;78.26074;95267.89;;;;
2019/04/27 05:49:34;;;;;;;3.8;3.5;;;;;;;8.59;77.99316;95274.02;;;;
2019/04/27 05:50:36;;;;;;;3.8;3.5;;;;;;;8.59;77.99316;95274.02;;;;
2019/04/27 05:51:37;;;;;;;3.8;3.5;;;;;;;8.59;77.99316;95274.02;;;;
2019/04/27 05:52:38;;;;;;;3.8;3.5;;;;;;;8.59;77.99316;95274.02;;;;
2019/04/27 05:53:39;;;;;;;3.8;3.5;;;;;;;8.59;77.99316;95274.02;;;;
2019/04/27 05:54:40;;;;;;;3.8;3.5;;;;;;;8.59;77.99316;95274.02;;;;
2019/04/27 05:55:41;;;;;;;3.8;3.5;;;;;;;8.59;77.99316;95274.02;;;;
2019/04/27 05:56:42;;;;;;;3.8;3.5;;;;;;;8.59;77.99316;95274.02;;;;
2019/04/27 05:57:43;;;;;;;3.8;3.5;;;;;;;8.59;77.99316;95274.02;;;;
2019/04/27 05:58:44;;;;;;;3.8;3.5;;;;;;;8.59;77.99316;95274.02;;;;
2019/04/27 05:59:45;;;;;;;4.8;4;;;;;;;8.86;77.70313;95279.3;;;;
2019/04/27 06:00:47;;;;;;;4.8;4;;;;;;;8.86;77.70313;95279.3;;;;
2019/04/27 06:01:48;;;;;;;4.8;4;;;;;;;8.86;77.70313;95279.3;;;;
2019/04/27 06:02:49;;;;;;;4.8;4;;;;;;;8.86;77.70313;95279.3;;;;
2019/04/27 06:03:50;;;;;;;4.8;4;;;;;;;8.86;77.70313;95279.3;;;;
2019/04/27 06:04:51;;;;;;;4.8;4;;;;;;;8.86;77.70313;95279.3;;;;
2019/04/27 06:05:52;;;;;;;4.8;4;;;;;;;8.86;77.70313;95279.3;;;;
2019/04/27 06:06:53;;;;;;;4.8;4;;;;;;;8.86;77.70313;95279.3;;;;
2019/04/27 06:07:54;;;;;;;4.8;4;;;;;;;8.86;77.70313;95279.3;;;;
2019/04/27 06:08:56;;;;;;;4.8;4;;;;;;;8.86;77.70313;95279.3;;;;
2019/04/27 06:09:57;;;;;;;4.950001;4.5;;;;;;;8.6;78.17676;95293.55;;;;
2019/04/27 06:10:58;;;;;;;4.950001;4.5;;;;;;;8.6;78.17676;95293.55;;;;
2019/04/27 06:11:59;;;;;;;4.950001;4.5;;;;;;;8.6;78.17676;95293.55;;;;
2019/04/27 06:13:00;;;;;;;4.950001;4.5;;;;;;;8.6;78.17676;95293.55;;;;
2019/04/27 06:14:01;;;;;;;4.950001;4.5;;;;;;;8.6;78.17676;95293.55;;;;
2019/04/27 06:15:02;;;;;;;4.950001;4.5;;;;;;;8.6;78.17676;95293.55;;;;
2019/04/27 06:16:04;;;;;;;4.950001;4.5;;;;;;;8.6;78.17676;95293.55;;;;
2019/04/27 06:17:05;;;;;;;4.950001;4.5;;;;;;;8.6;78.17676;95293.55;;;;
2019/04/27 06:18:06;;;;;;;4.950001;4.5;;;;;;;8.6;78.17676;95293.55;;;;
2019/04/27 06:19:07;;;;;;;4.950001;4.5;;;;;;;8.6;78.17676;95293.55;;;;
2019/04/27 06:20:08;;;;;;;4.950001;4.5;;;;;;;8.6;78.17676;95293.55;;;;
2019/04/27 06:21:09;;;;;;;6.95;4.45;;;;;;;8.18;78.89844;95287.65;;;;
2019/04/27 06:22:10;;;;;;;6.95;4.45;;;;;;;8.18;78.89844;95287.65;;;;
2019/04/27 06:23:11;;;;;;;6.95;4.45;;;;;;;8.18;78.89844;95287.65;;;;
2019/04/27 06:24:13;;;;;;;6.95;4.45;;;;;;;8.18;78.89844;95287.65;;;;
2019/04/27 06:25:14;;;;;;;6.95;4.45;;;;;;;8.18;78.89844;95287.65;;;;
2019/04/27 06:26:15;;;;;;;6.95;4.45;;;;;;;8.18;78.89844;95287.65;;;;
2019/04/27 06:27:16;;;;;;;6.95;4.45;;;;;;;8.18;78.89844;95287.65;;;;
2019/04/27 06:28:17;;;;;;;6.95;4.45;;;;;;;8.18;78.89844;95287.65;;;;
2019/04/27 06:29:18;;;;;;;6.95;4.45;;;;;;;8.18;78.89844;95287.65;;;;
2019/04/27 06:30:19;;;;;;;6.95;4.45;;;;;;;8.18;78.89844;95287.65;;;;
2019/04/27 06:31:20;;;;;;;4.849999;4.2;;;;;;;8.09;79.43555;95290.22;;;;
2019/04/27 06:32:21;;;;;;;4.849999;4.2;;;;;;;8.09;79.43555;95290.22;;;;
2019/04/27 06:33:22;;;;;;;4.849999;4.2;;;;;;;8.09;79.43555;95290.22;;;;
2019/04/27 06:34:24;;;;;;;4.849999;4.2;;;;;;;8.09;79.43555;95290.22;;;;
2019/04/27 06:35:25;;;;;;;4.849999;4.2;;;;;;;8.09;79.43555;95290.22;;;;
2019/04/27 06:36:26;;;;;;;4.849999;4.2;;;;;;;8.09;79.43555;95290.22;;;;
2019/04/27 06:37:27;;;;;;;4.849999;4.2;;;;;;;8.09;79.43555;95290.22;;;;
2019/04/27 06:38:28;;;;;;;4.849999;4.2;;;;;;;8.09;79.43555;95290.22;;;;
2019/04/27 06:39:29;;;;;;;4.849999;4.2;;;;;;;8.09;79.43555;95290.22;;;;
2019/04/27 06:40:30;;;;;;;4.849999;4.2;;;;;;;8.09;79.43555;95290.22;;;;
2019/04/27 06:41:31;;;;;;;4.849999;4.2;;;;;;;8.09;79.43555;95290.22;;;;
2019/04/27 06:42:32;;;;;;;4.75;4.35;;;;;;;8.29;79.35645;95290.86;;;;
2019/04/27 06:43:33;;;;;;;4.75;4.35;;;;;;;8.29;79.35645;95290.86;;;;
2019/04/27 06:44:34;;;;;;;4.75;4.35;;;;;;;8.29;79.35645;95290.86;;;;